createdAt,value
2023-04-21T13:48:30.480Z,0.153
2023-04-21T13:50:30.451Z,0.155
2023-04-21T13:52:30.467Z,0.154
2023-04-21T13:54:30.691Z,0.153
2023-04-21T13:56:30.469Z,0.155
2023-04-21T13:58:30.455Z,0.158
2023-04-21T14:00:30.464Z,0.164
2023-04-21T14:02:30.633Z,0.166
2023-04-21T14:04:30.542Z,0.165
2023-04-21T14:06:30.466Z,0.166
2023-04-21T14:09:30.592Z,0.165
2023-04-21T14:11:30.492Z,0.163
2023-04-21T14:13:37.343Z,0.163
2023-04-21T14:15:30.501Z,0.164
2023-04-21T14:17:30.515Z,0.166
2023-04-21T14:19:30.742Z,0.164
2023-04-21T14:21:30.467Z,0.165
2023-04-21T14:23:30.554Z,0.166
2023-04-21T14:25:30.468Z,0.162
2023-04-21T14:27:30.475Z,0.160
2023-04-21T14:29:30.540Z,0.158
2023-04-21T14:31:30.568Z,0.154
2023-04-21T14:33:30.507Z,0.158
2023-04-21T14:35:30.486Z,0.158
2023-04-21T14:37:30.581Z,0.158
2023-04-21T14:39:30.515Z,0.153
2023-04-21T14:41:30.532Z,0.152
2023-04-21T14:43:30.488Z,0.152
2023-04-21T14:45:30.559Z,0.152
2023-04-21T14:47:30.553Z,0.151
2023-04-21T14:49:30.708Z,0.153
2023-04-21T14:51:31.532Z,0.155
2023-04-21T14:53:30.541Z,0.156
2023-04-21T14:55:30.640Z,0.155
2023-04-21T14:57:30.517Z,0.153
2023-04-21T14:59:30.537Z,0.155
2023-04-21T15:01:30.642Z,0.150
2023-04-21T15:03:30.606Z,0.149
2023-04-21T15:05:30.540Z,0.150
2023-04-21T15:07:30.534Z,0.150
2023-04-21T15:09:30.555Z,0.152
2023-04-21T15:11:30.550Z,0.157
2023-04-21T15:13:30.582Z,0.158
2023-04-21T15:15:30.529Z,0.159
2023-04-21T15:17:30.532Z,0.159
2023-04-21T15:19:30.513Z,0.157
2023-04-21T15:21:30.522Z,0.158
2023-04-21T15:23:30.828Z,0.155
2023-04-21T15:25:30.535Z,0.156
2023-04-21T15:27:30.604Z,0.158
2023-04-21T15:29:30.569Z,0.160
2023-04-21T15:31:30.545Z,0.162
2023-04-21T15:33:30.554Z,0.158
2023-04-21T15:35:30.523Z,0.161
2023-04-21T15:37:30.606Z,0.163
2023-04-21T15:39:30.565Z,0.164
2023-04-21T15:41:30.540Z,0.164
2023-04-21T15:43:30.573Z,0.164
2023-04-21T15:45:30.548Z,0.167
2023-04-21T15:47:30.628Z,0.166
2023-04-21T15:49:30.567Z,0.167
2023-04-21T15:51:30.575Z,0.164
2023-04-21T15:53:30.591Z,0.160
2023-04-21T15:55:30.709Z,0.160
2023-04-21T15:57:30.584Z,0.158
2023-04-21T15:59:30.764Z,0.159
2023-04-21T16:01:30.662Z,0.161
2023-04-21T16:03:30.754Z,0.162
2023-04-21T16:05:30.778Z,0.163
2023-04-21T16:07:30.581Z,0.166
2023-04-21T16:09:30.605Z,0.168
2023-04-21T16:11:30.601Z,0.165
2023-04-21T16:13:30.578Z,0.165
2023-04-21T16:15:30.736Z,0.166
2023-04-21T16:17:30.671Z,0.167
2023-04-21T16:19:30.700Z,0.170
2023-04-21T16:21:30.606Z,0.171
2023-04-21T16:23:30.588Z,0.176
2023-04-21T16:25:30.806Z,0.173
2023-04-21T16:27:30.636Z,0.174
2023-04-21T16:29:30.655Z,0.175
2023-04-21T16:31:30.665Z,0.172
2023-04-21T16:33:30.590Z,0.175
2023-04-21T16:35:30.647Z,0.178
2023-04-21T16:37:30.671Z,0.183
2023-04-21T16:39:30.620Z,0.183
2023-04-21T16:41:30.707Z,0.183
2023-04-21T16:43:30.658Z,0.186
2023-04-21T16:45:30.617Z,0.183
2023-04-21T16:47:30.659Z,0.181
2023-04-21T16:49:30.580Z,0.181
2023-04-21T16:51:30.578Z,0.184
2023-04-21T16:53:30.614Z,0.184
2023-04-21T16:55:30.620Z,0.183
2023-04-21T16:57:30.598Z,0.186
2023-04-21T16:59:31.538Z,0.180
2023-04-21T17:01:30.664Z,0.181
2023-04-21T17:03:30.796Z,0.182
2023-04-21T17:05:30.661Z,0.181
2023-04-21T17:07:30.664Z,0.181
2023-04-21T17:09:30.668Z,0.179
2023-04-21T17:11:30.687Z,0.182
2023-04-21T17:13:30.700Z,0.179
2023-04-21T17:15:30.739Z,0.175
2023-04-21T17:17:30.682Z,0.174
2023-04-21T17:19:30.685Z,0.177
2023-04-21T17:22:16.972Z,0.180
2023-04-21T17:24:17.183Z,0.184
2023-04-21T17:26:16.552Z,0.187
2023-04-21T17:28:16.359Z,0.192
2023-04-21T17:30:16.546Z,0.194
2023-04-21T17:32:16.981Z,0.196
2023-04-21T17:34:17.396Z,0.197
2023-04-21T17:36:16.416Z,0.191
2023-04-21T17:38:16.722Z,0.186
2023-04-21T17:40:16.900Z,0.189
2023-04-21T17:42:20.048Z,0.190
2023-04-21T17:44:16.365Z,0.189
2023-04-21T17:46:16.448Z,0.194
2023-04-21T17:48:16.477Z,0.193
2023-04-21T17:50:16.434Z,0.194
2023-04-21T17:52:17.092Z,0.194
2023-04-21T17:54:16.531Z,0.193
2023-04-21T17:56:16.452Z,0.200
2023-04-21T17:58:16.776Z,0.199
2023-04-21T18:00:17.406Z,0.204
2023-04-21T18:02:16.665Z,0.208
2023-04-21T18:04:16.653Z,0.210
2023-04-21T18:06:16.581Z,0.206
2023-04-21T18:08:17.546Z,0.206
2023-04-21T18:10:16.504Z,0.208
2023-04-21T18:12:18.581Z,0.211
2023-04-21T18:14:16.416Z,0.214
2023-04-21T18:16:16.414Z,0.219
2023-04-21T18:18:16.425Z,0.221
2023-04-21T18:20:16.390Z,0.219
2023-04-21T18:22:16.575Z,0.213
2023-04-21T18:24:17.968Z,0.210
2023-04-21T18:26:28.377Z,0.210
2023-04-21T18:28:28.526Z,0.205
2023-04-21T18:30:22.106Z,0.205
2023-04-21T18:32:29.143Z,0.202
2023-04-21T18:34:16.472Z,0.205
2023-04-21T18:36:16.370Z,0.207
2023-04-21T18:38:16.349Z,0.205
2023-04-21T18:40:16.356Z,0.209
2023-04-21T18:42:16.359Z,0.211
2023-04-21T18:44:16.372Z,0.214
2023-04-21T18:46:20.526Z,0.212
2023-04-21T18:48:16.401Z,0.213
2023-04-21T18:50:16.438Z,0.210
2023-04-21T18:52:16.408Z,0.209
2023-04-21T18:54:16.510Z,0.208
2023-04-21T18:56:16.628Z,0.205
2023-04-21T18:58:16.454Z,0.206
2023-04-21T19:00:16.444Z,0.204
2023-04-21T19:02:16.683Z,0.203
2023-04-21T19:04:16.582Z,0.204
2023-04-21T19:06:17.576Z,0.206
2023-04-21T19:08:18.264Z,0.205
2023-04-21T19:10:16.453Z,0.203
2023-04-21T19:12:16.417Z,0.202
2023-04-21T19:14:16.454Z,0.204
2023-04-21T19:16:16.808Z,0.203
2023-04-21T19:18:16.377Z,0.204
2023-04-21T19:20:16.617Z,0.210
2023-04-21T19:22:16.433Z,0.213
2023-04-21T19:24:16.378Z,0.214
2023-04-21T19:26:16.503Z,0.213
2023-04-21T19:28:16.503Z,0.217
2023-04-21T19:30:16.407Z,0.217
2023-04-21T19:32:16.465Z,0.220
2023-04-21T19:34:18.613Z,0.216
2023-04-21T19:36:16.418Z,0.213
2023-04-21T19:38:16.564Z,0.218
2023-04-21T19:40:16.491Z,0.216
2023-04-21T19:42:20.639Z,0.215
2023-04-21T19:44:16.903Z,0.213
2023-04-21T19:46:16.562Z,0.210
2023-04-21T19:48:16.601Z,0.212
2023-04-21T19:50:16.428Z,0.217
2023-04-21T19:54:16.452Z,0.225
2023-04-21T19:56:17.348Z,0.223
2023-04-21T19:58:28.564Z,0.224
2023-04-21T20:00:16.544Z,0.227
2023-04-21T20:04:16.576Z,0.227
2023-04-21T20:08:16.574Z,0.236
2023-04-21T20:10:16.528Z,0.236
2023-04-21T20:14:16.416Z,0.235
2023-04-21T20:16:27.930Z,0.232
2023-04-21T20:18:28.043Z,0.235
2023-04-21T20:20:27.966Z,0.231
2023-04-21T20:22:27.991Z,0.235
2023-04-21T20:24:27.886Z,0.240
2023-04-21T20:26:27.857Z,0.243
2023-04-21T20:28:27.934Z,0.241
2023-04-21T20:30:27.935Z,0.248
2023-04-21T20:32:27.889Z,0.251
2023-04-21T20:34:27.962Z,0.260
2023-04-21T20:36:27.881Z,0.271
2023-04-21T20:38:27.889Z,0.287
2023-04-21T20:40:27.890Z,0.286
2023-04-21T20:42:29.288Z,0.293
2023-04-21T20:44:27.930Z,0.300
2023-04-21T20:46:27.889Z,0.301
2023-04-21T20:48:28.173Z,0.301
2023-04-21T20:50:27.905Z,0.301
2023-04-21T20:52:28.019Z,0.307
2023-04-21T20:54:28.220Z,0.335
2023-04-21T20:56:28.757Z,0.385
2023-04-21T20:58:27.930Z,0.464
2023-04-21T21:00:28.149Z,0.460
2023-04-21T21:02:28.102Z,0.456
2023-04-21T21:04:29.494Z,0.452
2023-04-21T21:06:27.921Z,0.451
2023-04-21T21:08:28.051Z,0.441
2023-04-21T21:10:27.925Z,0.441
2023-04-21T21:12:28.040Z,0.443
2023-04-21T21:14:27.958Z,0.445
2023-04-21T21:16:28.068Z,0.451
2023-04-21T21:18:27.919Z,0.446
2023-04-21T21:20:28.341Z,0.443
2023-04-21T21:22:28.130Z,0.439
2023-04-21T21:24:27.932Z,0.436
2023-04-21T21:26:27.972Z,0.434
2023-04-21T21:28:28.680Z,0.431
2023-04-21T21:30:31.781Z,0.424
2023-04-21T21:32:27.938Z,0.420
2023-04-21T21:34:33.608Z,0.415
2023-04-21T21:36:27.959Z,0.404
2023-04-21T21:39:28.026Z,0.389
2023-04-21T21:41:28.419Z,0.384
2023-04-21T21:43:28.031Z,0.375
2023-04-21T21:45:27.941Z,0.368
2023-04-21T21:47:28.070Z,0.367
2023-04-21T21:49:27.918Z,0.366
2023-04-21T21:51:30.174Z,0.362
2023-04-21T21:53:27.973Z,0.342
2023-04-21T21:55:32.982Z,0.307
2023-04-21T21:57:27.936Z,0.250
2023-04-21T21:59:28.060Z,0.200
2023-04-21T22:01:30.785Z,0.201
2023-04-21T22:03:28.235Z,0.202
2023-04-21T22:05:28.114Z,0.205
2023-04-21T22:07:28.345Z,0.207
2023-04-21T22:09:27.941Z,0.207
2023-04-21T22:11:28.196Z,0.204
2023-04-21T22:13:28.002Z,0.202
2023-04-21T22:15:30.853Z,0.197
2023-04-21T22:17:28.169Z,0.192
2023-04-21T22:19:27.928Z,0.191
2023-04-21T22:21:27.940Z,0.189
2023-04-21T22:23:27.951Z,0.186
2023-04-21T22:25:27.960Z,0.184
2023-04-21T22:27:28.186Z,0.185
2023-04-21T22:29:27.990Z,0.180
2023-04-21T22:31:27.984Z,0.179
2023-04-21T22:33:27.983Z,0.176
2023-04-21T22:35:27.922Z,0.178
2023-04-21T22:37:29.836Z,0.179
2023-04-21T22:39:28.049Z,0.180
2023-04-21T22:41:27.990Z,0.181
2023-04-21T22:43:28.444Z,0.186
2023-04-21T22:45:28.109Z,0.187
2023-04-21T22:47:30.031Z,0.188
2023-04-21T22:49:30.281Z,0.190
2023-04-21T22:51:28.051Z,0.187
2023-04-21T22:53:27.945Z,0.185
2023-04-21T22:55:32.914Z,0.181
2023-04-21T22:57:32.014Z,0.178
2023-04-21T22:59:28.588Z,0.179
2023-04-21T23:01:28.152Z,0.178
2023-04-21T23:03:28.231Z,0.181
2023-04-21T23:05:27.957Z,0.178
2023-04-21T23:07:28.003Z,0.174
2023-04-21T23:09:28.236Z,0.174
2023-04-21T23:11:28.002Z,0.177
2023-04-21T23:13:28.086Z,0.176
2023-04-21T23:15:28.136Z,0.179
2023-04-21T23:17:28.080Z,0.178
2023-04-21T23:19:28.110Z,0.178
2023-04-21T23:21:28.036Z,0.185
2023-04-21T23:23:27.974Z,0.190
2023-04-21T23:25:28.078Z,0.191
2023-04-21T23:27:27.972Z,0.189
2023-04-21T23:29:28.045Z,0.196
2023-04-21T23:31:28.097Z,0.195
2023-04-21T23:33:28.032Z,0.194
2023-04-21T23:35:28.017Z,0.190
2023-04-21T23:37:28.301Z,0.192
2023-04-21T23:39:27.998Z,0.188
2023-04-21T23:41:28.021Z,0.186
2023-04-21T23:43:27.978Z,0.183
2023-04-21T23:45:28.117Z,0.181
2023-04-21T23:47:28.124Z,0.180
2023-04-21T23:49:31.741Z,0.179
2023-04-21T23:51:28.093Z,0.181
2023-04-21T23:53:28.070Z,0.184
2023-04-21T23:55:28.107Z,0.186
2023-04-21T23:57:28.048Z,0.186
2023-04-21T23:59:28.097Z,0.185
